Airfield :
LOGIN :

Register | Disclaimer

   EN    FR    IT 

 










Legend :    VFR   Marginal VFR   IFR   Intensive IFR   Very Intensive IFR
Visi :
Ceiling :
>= 8 km
>= 3000ft
5 to 8 km
1000 to 3000 ft
1500m to 5 km
500 to 1000 ft
800 to 1500m
200 to 500 ft
< 800m
< 200 ft
Symbols :   Thunderstorms  Fog  Heavy snow  Heavy precipitations  Wind > 20 kt
SIGMETs :     Misc.  Thunderstorms  Icing  Turbulence  Mountain Waves  Volcanic Ashes







- Airport Elevation : -15 ft
- IATA code : RTM


EHRD - Rotterdam Zestienhoven

CURRENT METAR :
  • 241725Z AUTO 05012KT 020V080 9999 NCD 12/04 Q1029 NOSIG

EXPIRED METARs :
  • 241655Z AUTO 05014KT 9999 NCD 12/04 Q1029 NOSIG
  • 241625Z AUTO 05013KT 010V080 9999 NCD 12/04 Q1029 NOSIG
  • 241555Z AUTO 04013KT 010V070 9999 NCD 13/04 Q1029 NOSIG
  • 241525Z AUTO 05013KT 9999 NSC 13/05 Q1029 NOSIG
  • 241455Z AUTO 05013KT 9999 NCD 14/05 Q1029 NOSIG

TAF TAF EHRD
Valid from the 24 at 18:00 until the 26 at 00:00 UTC


241649Z 2418/2524 06013KT CAVOK
BECMG 2419/2422 05007KT
BECMG 2509/2512 04013KT
BECMG 2518/2521 05008KT
No reported NOTAMs for that airfield.



MET'MAP, your aeronautical weather chart ! - Copyright ORBIFLY December 2007 - Disclaimer

ORBIFLY MET'MAP TEAM :

Programming & Development : Alexandra Zaïnal
Concept & Development : Baudouin d'Aumeries
Co-Development & Prog : Marc-Olivier Méhu
Technical & hardware support : Manuel Goepfert

Contact : metmap@orbifly.com




SOURCES & CREDITS :

   NOAA